KWVI/WVI METAR and TAF weather

Enter ICAO airport designator
Station Type Date Time Source
KWVI METAR 2019/08/24 06:53 UTC NOAA

KWVI 240653Z AUTO 27003KT 10SM OVC010 17/14 A2988 RMK AO2 SLP118 T01670139


Station Type Date Time Source
KWVI Decoded METAR 2019/08/24 06:53 UTC NOAA

Station name not available
Aug 24, 2019 - 02:53 AM EDT / 2019.08.24 0653 UTC
Wind: from the W (270 degrees) at 3 MPH (3 KT):0
Visibility: 10 mile(s):0
Sky conditions: overcast
Temperature: 62.1 F (16.7 C)
Dew Point: 57.0 F (13.9 C)
Relative Humidity: 83%
Pressure (altimeter): 29.88 in. Hg (1011 hPa)
ob: KWVI 240653Z AUTO 27003KT 10SM OVC010 17/14 A2988 RMK AO2 SLP118 T01670139
cycle: 7

Station Type Date Time Source
KWVI TAF UTC NOAA

Error!

Example: see airport list